createdAt,value
2023-04-17T00:01:44.481Z,17.70
2023-04-17T00:06:45.231Z,14.93
2023-04-17T00:11:45.839Z,17.50
2023-04-17T00:16:47.839Z,15.98
2023-04-17T00:21:48.513Z,17.45
2023-04-17T00:26:49.097Z,17.45
2023-04-17T00:31:51.188Z,17.02
2023-04-17T00:36:52.037Z,17.80
2023-04-17T00:41:52.873Z,19.05
2023-04-17T00:46:54.995Z,21.48
2023-04-17T00:51:55.948Z,18.73
2023-04-17T00:56:58.195Z,17.83
2023-04-17T01:02:01.485Z,18.85
2023-04-17T01:07:02.250Z,18.70
2023-04-17T01:12:22.246Z,18.65
2023-04-17T01:17:26.242Z,17.92
2023-04-17T01:22:26.973Z,16.77
2023-04-17T01:27:32.863Z,14.90
2023-04-17T01:32:33.552Z,15.35
2023-04-17T01:37:34.304Z,15.35
2023-04-17T01:42:36.325Z,13.55
2023-04-17T01:47:37.146Z,12.80
2023-04-17T01:52:39.712Z,11.48
2023-04-17T01:57:42.329Z,11.40
2023-04-17T02:02:43.256Z,10.60
2023-04-17T02:07:44.042Z,10.32
2023-04-17T02:12:46.018Z,8.63
2023-04-17T02:17:46.700Z,7.38
2023-04-17T02:22:47.275Z,6.50
2023-04-17T02:27:49.207Z,6.82
2023-04-17T02:32:51.870Z,9.85
2023-04-17T02:37:52.944Z,7.65
2023-04-17T02:42:57.790Z,8.50
2023-04-17T02:47:58.545Z,7.50
2023-04-17T02:52:59.214Z,6.72
2023-04-17T02:58:01.146Z,13.57
2023-04-17T03:03:03.167Z,9.02
2023-04-17T03:08:04.266Z,8.27
2023-04-17T03:13:12.537Z,11.70
2023-04-17T03:18:13.227Z,9.48
2023-04-17T03:23:13.834Z,8.75
2023-04-17T03:28:15.998Z,7.20
2023-04-17T03:33:17.273Z,8.77
2023-04-17T03:38:18.734Z,10.88
2023-04-17T03:43:20.927Z,8.43
2023-04-17T03:48:21.557Z,11.85
2023-04-17T03:53:24.121Z,11.48
2023-04-17T03:58:26.428Z,7.68
2023-04-17T04:03:27.681Z,11.68
2023-04-17T04:08:28.844Z,11.75
2023-04-17T04:13:30.817Z,9.57
2023-04-17T04:18:35.010Z,11.77
2023-04-17T04:23:37.798Z,9.95
2023-04-17T04:28:40.130Z,8.40
2023-04-17T04:33:47.733Z,11.00
2023-04-17T04:38:49.823Z,10.55
2023-04-17T04:43:59.131Z,9.82
2023-04-17T04:49:00.905Z,13.07
2023-04-17T04:54:02.085Z,9.68
2023-04-17T04:59:04.111Z,6.65
2023-04-17T05:04:08.710Z,5.50
2023-04-17T05:09:09.701Z,4.85
2023-04-17T05:14:12.183Z,3.85
2023-04-17T05:19:13.626Z,3.40
2023-04-17T05:24:23.105Z,3.90
2023-04-17T05:29:25.817Z,3.90
2023-04-17T05:34:27.220Z,3.50
2023-04-17T05:39:28.316Z,5.03
2023-04-17T05:44:31.369Z,3.72
2023-04-17T05:49:32.108Z,5.07
2023-04-17T05:54:32.768Z,6.97
2023-04-17T05:59:34.857Z,7.28
2023-04-17T06:04:36.211Z,5.47
2023-04-17T06:09:37.706Z,5.78
2023-04-17T06:14:39.629Z,6.47
2023-04-17T06:19:42.191Z,5.72
2023-04-17T06:24:42.780Z,9.50
2023-04-17T06:29:44.783Z,8.20
2023-04-17T06:34:58.578Z,7.72
2023-04-17T06:40:13.453Z,9.48
2023-04-17T06:45:15.852Z,6.25
2023-04-17T06:50:16.766Z,6.13
2023-04-17T06:55:17.943Z,4.90
2023-04-17T07:00:21.239Z,6.43
2023-04-17T07:05:21.862Z,5.07
2023-04-17T07:10:22.466Z,5.93
2023-04-17T07:15:24.467Z,5.68
2023-04-17T07:20:25.524Z,4.78
2023-04-17T07:25:26.449Z,6.25
2023-04-17T07:30:28.632Z,4.65
2023-04-17T07:35:29.522Z,3.83
2023-04-17T07:40:30.618Z,4.75
2023-04-17T07:45:33.648Z,3.78
2023-04-17T07:50:34.463Z,8.63
2023-04-17T07:55:35.688Z,3.70
2023-04-17T08:00:37.792Z,3.58
2023-04-17T08:05:38.470Z,7.60
2023-04-17T08:10:39.062Z,3.30
2023-04-17T08:15:41.023Z,2.92
2023-04-17T08:20:41.873Z,5.93
2023-04-17T08:25:42.666Z,2.75
2023-04-17T08:30:44.760Z,2.53
2023-04-17T08:35:45.738Z,3.28
2023-04-17T08:40:52.102Z,4.65
2023-04-17T08:45:55.396Z,3.85
2023-04-17T08:50:56.310Z,4.18
2023-04-17T08:55:58.994Z,3.97
2023-04-17T09:01:09.021Z,3.38
2023-04-17T09:06:10.872Z,5.80
2023-04-17T09:11:17.662Z,6.70
2023-04-17T09:16:20.540Z,6.78
2023-04-17T09:21:21.229Z,7.47
2023-04-17T09:26:23.838Z,7.00
2023-04-17T09:31:27.788Z,11.85
2023-04-17T09:36:30.580Z,6.00
2023-04-17T09:41:33.301Z,8.10
2023-04-17T09:46:38.491Z,6.80
2023-04-17T09:51:39.869Z,8.52
2023-04-17T09:56:41.191Z,9.05
2023-04-17T10:01:43.606Z,8.05
2023-04-17T10:06:44.340Z,12.70
2023-04-17T10:11:47.106Z,8.38
2023-04-17T10:16:50.489Z,9.48
2023-04-17T10:22:24.860Z,7.47
2023-04-17T10:27:48.198Z,9.40
2023-04-17T10:33:22.623Z,11.30
2023-04-17T10:38:35.621Z,8.10
2023-04-17T10:43:36.257Z,9.07
2023-04-17T10:48:39.070Z,9.45
2023-04-17T10:53:46.276Z,5.78
2023-04-17T10:58:58.556Z,11.18
2023-04-17T11:04:00.573Z,8.27
2023-04-17T11:09:03.313Z,11.65
2023-04-17T11:14:06.957Z,11.40
2023-04-17T11:19:09.870Z,8.57
2023-04-17T11:24:12.133Z,8.32
2023-04-17T11:29:16.882Z,9.02
2023-04-17T11:34:17.743Z,9.63
2023-04-17T11:39:20.360Z,8.38
2023-04-17T11:44:21.322Z,9.77
2023-04-17T11:49:26.389Z,11.32
2023-04-17T11:54:28.801Z,11.95
2023-04-17T11:59:34.212Z,8.85
2023-04-17T12:04:36.465Z,11.20
2023-04-17T12:09:38.756Z,9.13
2023-04-17T12:14:39.384Z,9.93
2023-04-17T12:19:39.978Z,9.48
2023-04-17T12:24:41.939Z,11.52
2023-04-17T12:29:44.823Z,8.63
2023-04-17T12:34:46.033Z,7.60
2023-04-17T12:39:48.110Z,9.32
2023-04-17T12:44:48.692Z,7.72
2023-04-17T12:49:49.266Z,8.23
2023-04-17T12:54:51.665Z,8.65
2023-04-17T12:59:53.051Z,6.32
2023-04-17T13:04:54.002Z,8.98
2023-04-17T13:09:55.916Z,8.82
2023-04-17T13:14:57.537Z,11.82
2023-04-17T13:19:58.191Z,14.48
2023-04-17T13:25:00.248Z,12.38
2023-04-17T13:30:00.907Z,13.10
2023-04-17T13:35:02.142Z,13.35
2023-04-17T13:40:05.678Z,13.00
2023-04-17T13:45:08.160Z,13.75
2023-04-17T13:50:10.506Z,10.27
2023-04-17T13:55:14.791Z,10.98
2023-04-17T14:00:17.297Z,11.23
2023-04-17T14:05:18.119Z,12.35
2023-04-17T14:10:20.423Z,14.57
2023-04-17T14:15:32.634Z,10.82
2023-04-17T14:20:35.940Z,13.13
2023-04-17T14:25:38.560Z,12.43
2023-04-17T14:30:39.240Z,13.18
2023-04-17T14:35:40.513Z,13.00
2023-04-17T14:40:42.457Z,14.18
2023-04-17T14:45:43.131Z,14.63
2023-04-17T14:50:43.813Z,17.90
2023-04-17T14:55:46.264Z,16.65
2023-04-17T15:00:47.161Z,13.52
2023-04-17T15:05:48.065Z,12.18
2023-04-17T15:10:51.466Z,13.25
2023-04-17T15:15:52.925Z,12.27
2023-04-17T15:20:53.611Z,10.70
2023-04-17T15:25:57.381Z,12.23
2023-04-17T15:30:58.011Z,12.52
2023-04-17T15:35:59.517Z,13.55
2023-04-17T15:41:03.515Z,15.60
2023-04-17T15:46:04.444Z,14.90
2023-04-17T15:51:05.591Z,15.82
2023-04-17T15:56:08.434Z,10.23
2023-04-17T16:01:10.663Z,9.68
2023-04-17T16:06:12.002Z,9.52
2023-04-17T16:11:14.104Z,14.05
2023-04-17T16:16:14.956Z,8.43
2023-04-17T16:21:15.671Z,10.10
2023-04-17T16:26:17.593Z,9.05
2023-04-17T16:31:18.326Z,9.02
2023-04-17T16:36:19.194Z,9.77
2023-04-17T16:41:21.413Z,12.73
2023-04-17T16:46:35.538Z,6.35
2023-04-17T16:51:45.708Z,6.45
2023-04-17T16:56:47.934Z,6.22
2023-04-17T17:01:49.715Z,14.80
2023-04-17T17:06:50.731Z,7.28
2023-04-17T17:11:52.675Z,9.70
2023-04-17T17:16:53.402Z,8.07
2023-04-17T17:21:55.130Z,6.43
2023-04-17T17:26:57.334Z,6.45
2023-04-17T17:31:58.071Z,5.90
2023-04-17T17:36:59.877Z,8.52
2023-04-17T17:42:04.265Z,7.32
2023-04-17T17:47:07.045Z,8.23
2023-04-17T17:52:09.996Z,6.28
2023-04-17T17:57:12.085Z,7.13
2023-04-17T18:02:13.588Z,9.45
2023-04-17T18:07:14.556Z,6.07
2023-04-17T18:12:17.322Z,8.60
2023-04-17T18:17:19.440Z,9.90
2023-04-17T18:22:20.650Z,7.60
2023-04-17T18:27:23.035Z,7.47
2023-04-17T18:32:23.911Z,7.43
2023-04-17T18:37:26.865Z,9.95
2023-04-17T18:42:28.929Z,6.20
2023-04-17T18:47:29.604Z,11.73
2023-04-17T18:52:30.253Z,10.88
2023-04-17T18:57:32.214Z,10.35
2023-04-17T19:02:33.033Z,8.15
2023-04-17T19:07:33.798Z,6.88
2023-04-17T19:12:36.079Z,15.25
2023-04-17T19:17:36.794Z,6.85
2023-04-17T19:22:37.432Z,9.00
2023-04-17T19:27:39.401Z,9.52
2023-04-17T19:32:40.104Z,10.10
2023-04-17T19:37:40.923Z,9.88
2023-04-17T19:42:42.989Z,12.48
2023-04-17T19:47:43.595Z,11.52
2023-04-17T19:52:44.291Z,18.92
2023-04-17T19:57:46.241Z,14.05
2023-04-17T20:02:47.862Z,13.52
2023-04-17T20:07:48.638Z,9.07
2023-04-17T20:12:50.572Z,16.30
2023-04-17T20:17:52.034Z,12.30
2023-04-17T20:22:53.128Z,13.15
2023-04-17T20:27:55.544Z,11.05
2023-04-17T20:32:56.235Z,17.45
2023-04-17T20:37:57.373Z,11.68
2023-04-17T20:42:59.351Z,18.02
2023-04-17T20:48:00.109Z,15.88
2023-04-17T20:53:00.839Z,15.50
2023-04-17T20:58:02.767Z,16.85
2023-04-17T21:03:03.607Z,16.52
2023-04-17T21:08:04.262Z,14.05
2023-04-17T21:13:06.157Z,22.08
2023-04-17T21:18:06.838Z,18.60
2023-04-17T21:23:07.479Z,19.95
2023-04-17T21:28:09.392Z,21.35
2023-04-17T21:33:10.033Z,15.88
2023-04-17T21:38:10.675Z,16.52
2023-04-17T21:43:12.615Z,16.98
2023-04-17T21:48:15.121Z,16.98
2023-04-17T21:53:15.768Z,11.93
2023-04-17T21:58:17.665Z,17.98
2023-04-17T22:03:18.733Z,13.43
2023-04-17T22:08:19.323Z,13.20
2023-04-17T22:13:21.272Z,14.82
2023-04-17T22:18:21.892Z,14.60
2023-04-17T22:23:22.482Z,13.50
2023-04-17T22:28:25.661Z,14.25
2023-04-17T22:33:26.459Z,19.48
2023-04-17T22:38:27.072Z,13.27
2023-04-17T22:43:28.955Z,15.23
2023-04-17T22:48:29.536Z,18.60
2023-04-17T22:53:31.437Z,19.00
2023-04-17T22:58:34.944Z,26.25
2023-04-17T23:03:35.735Z,21.67
2023-04-17T23:08:36.320Z,20.05
2023-04-17T23:13:38.237Z,23.25
2023-04-17T23:18:38.816Z,23.35
2023-04-17T23:23:39.406Z,25.60
2023-04-17T23:28:41.407Z,33.97
2023-04-17T23:33:41.959Z,29.40
2023-04-17T23:38:42.632Z,28.88
2023-04-17T23:43:44.652Z,30.30
2023-04-17T23:48:45.218Z,37.88
2023-04-17T23:53:46.321Z,30.88
2023-04-17T23:58:48.200Z,29.70
